Nickerson, Kansas
Current Conditions -  °F | °C
As of 3:52 PM on Sunday 28 Dec 2014 (Local Time) from KHUT Reporting Station
Clear Clear  
Wind Chill: 34°   Ceiling: Unl
Heat Index: 41°   Visibility: 10mi
Dew Point: 19°   Wind: 13mph
Humidity: 41%   Direction: 150°SSE
Pressure: 30.07"   Gusts: NA
Location:  38.15°N, 98.08°W
Report Text: KHUT 282152Z 15011KT 10SM CLR 05/M07 A3007 RMK AO2 SLP192 T00501072
Loading
Personal Weather Stations






























Interactive Weather Map New forecast layout! Learn more

10-Day Weather Forecast

Advertisements
Track Severe Weather on mobile